This is the latest recevied weather packets stored in our database for station/object DL4JCP-6. If no packets are shown the sender has not sent any weather packets the latest 10 day(s).
| Time | Temp. | Humidity | Pressure | Rain* | Wind** | Luminosity | Snow |
|---|---|---|---|---|---|---|---|
| 1777528995 | 5° C | 50% | 1031.4 hPa | 0 mm | - | - | - |
| 1777528098 | 4.44° C | 53% | 1031.5 hPa | 0 mm | - | - | - |
| 1777527194 | 3.33° C | 55% | 1031.3 hPa | 0 mm | - | - | - |
| 1777526298 | 0.56° C | 69% | 1031.1 hPa | 0 mm | - | - | - |
| 1777525394 | -1.67° C | 76% | 1030.6 hPa | 0 mm | - | - | - |
| 1777524497 | -2.22° C | 76% | 1030.6 hPa | 0 mm | - | - | - |
| 1777523597 | -3.33° C | 79% | 1030.4 hPa | 0 mm | - | - | - |
| 1777522695 | -3.33° C | 78% | 1030.4 hPa | 0 mm | - | - | - |
| 1777521794 | -3.33° C | 77% | 1030.2 hPa | 0 mm | - | - | - |
| 1777520894 | -3.33° C | 77% | 1030.1 hPa | 0 mm | - | - | - |
| 1777519994 | -3.33° C | 78% | 1030.3 hPa | 0 mm | - | - | - |
| 1777519094 | -3.33° C | 79% | 1030.3 hPa | 0 mm | - | - | - |
| 1777518194 | -3.33° C | 79% | 1030.3 hPa | 0 mm | - | - | - |
| 1777517294 | -3.33° C | 79% | 1030.3 hPa | 0 mm | - | - | - |
| 1777516394 | -3.33° C | 78% | 1030.2 hPa | 0 mm | - | - | - |
| 1777515494 | -2.78° C | 77% | 1030.2 hPa | 0 mm | - | - | - |
| 1777514594 | -2.78° C | 76% | 1030.1 hPa | 0 mm | - | - | - |
| 1777513694 | -2.22° C | 74% | 1030.1 hPa | 0 mm | - | - | - |
| 1777512796 | -2.22° C | 72% | 1030 hPa | 0 mm | - | - | - |
| 1777511896 | -1.67° C | 71% | 1030.2 hPa | 0 mm | - | - | - |
| 1777510996 | -1.11° C | 69% | 1030.2 hPa | 0 mm | - | - | - |
| 1777510096 | -1.11° C | 66% | 1030.4 hPa | 0 mm | - | - | - |
| 1777509193 | 0.56° C | 61% | 1030.6 hPa | 0 mm | - | - | - |
| 1777508293 | 1.67° C | 55% | 1030.8 hPa | 0 mm | - | - | - |
| 1777507393 | 2.22° C | 54% | 1030.9 hPa | 0 mm | - | - | - |
* Rain latest hour (hover to see other rain measurements)
** Current wind speed in m/s (hover to see current wind gust speed)